Time;durP1;ratioP1;P1;durP2;ratioP2;P2;SDS_P1;SDS_P2;PMS_P1;PMS_P2;Temp;Humidity;BMP_temperature;BMP_pressure;BME280_temperature;BME280_humidity;BME280_pressure;Samples;Min_cycle;Max_cycle;Signal;HPM_P1;HPM_P2
2023/05/06 00:02:21;;;;;;;10.63;5.27;;;;;;;9.37;100.00;101797.72;5025588;28;20199;-68
2023/05/06 00:04:47;;;;;;;6.60;4.63;;;;;;;9.33;100.00;101790.75;5025966;28;20241;-68
2023/05/06 00:07:12;;;;;;;7.37;4.63;;;;;;;9.33;100.00;101790.75;5026879;28;20244;-68
2023/05/06 00:09:38;;;;;;;13.23;5.20;;;;;;;9.35;100.00;101796.81;5029852;28;20198;-68
2023/05/06 00:12:04;;;;;;;10.27;5.30;;;;;;;9.37;100.00;101785.84;5022485;28;20628;-68
2023/05/06 00:14:29;;;;;;;10.23;5.13;;;;;;;9.43;100.00;101787.72;5029941;28;20721;-68
2023/05/06 00:16:55;;;;;;;8.70;5.10;;;;;;;9.42;100.00;101788.56;5030227;28;20276;-68
2023/05/06 00:19:20;;;;;;;11.53;5.47;;;;;;;9.40;100.00;101783.38;5030086;28;20240;-68
2023/05/06 00:21:46;;;;;;;7.73;4.90;;;;;;;9.48;100.00;101799.00;5025556;28;20606;-69
2023/05/06 00:24:11;;;;;;;9.50;4.97;;;;;;;9.45;100.00;101789.53;5027651;28;20198;-68
2023/05/06 00:26:37;;;;;;;11.43;5.17;;;;;;;9.50;100.00;101794.84;5021691;28;20264;-69
2023/05/06 00:29:02;;;;;;;10.30;5.20;;;;;;;9.48;100.00;101792.22;5007943;28;20195;-68
2023/05/06 00:31:28;;;;;;;10.13;5.60;;;;;;;9.44;100.00;101792.91;5022077;28;20653;-68
2023/05/06 00:33:53;;;;;;;9.43;5.53;;;;;;;9.50;100.00;101794.84;5010993;28;20195;-68
2023/05/06 00:36:19;;;;;;;10.33;5.33;;;;;;;9.52;100.00;101790.66;5030002;28;20205;-68
2023/05/06 00:38:44;;;;;;;9.70;5.70;;;;;;;9.47;100.00;101803.28;5017180;28;20675;-68
2023/05/06 00:41:10;;;;;;;8.03;5.47;;;;;;;9.42;100.00;101799.66;5025448;28;20845;-68
2023/05/06 00:43:35;;;;;;;10.27;5.47;;;;;;;9.40;100.00;101801.28;5028246;28;20780;-68
2023/05/06 00:46:01;;;;;;;12.17;5.53;;;;;;;9.44;100.00;101798.03;4999772;28;20926;-68
2023/05/06 00:48:27;;;;;;;10.90;6.20;;;;;;;9.40;100.00;101796.16;5028590;28;20555;-70
2023/05/06 00:50:54;;;;;;;11.97;6.30;;;;;;;9.40;100.00;101798.72;5021018;28;20238;-68
2023/05/06 00:53:22;;;;;;;10.03;5.80;;;;;;;9.39;100.00;101794.41;5026514;28;20821;-68
2023/05/06 00:55:50;;;;;;;12.43;6.30;;;;;;;9.40;100.00;101793.59;5029649;28;20605;-68
2023/05/06 00:58:17;;;;;;;12.77;6.00;;;;;;;9.38;100.00;101791.78;5026605;28;20209;-68
2023/05/06 01:00:43;;;;;;;12.07;6.40;;;;;;;9.36;100.00;101789.19;5027846;28;20210;-69
2023/05/06 01:03:09;;;;;;;11.47;6.43;;;;;;;9.30;100.00;101796.63;5029177;28;20573;-68
2023/05/06 01:05:47;;;;;;;11.67;6.67;;;;;;;9.37;100.00;101784.94;5028256;28;20206;-68
2023/05/06 01:08:22;;;;;;;8.53;6.10;;;;;;;9.39;100.00;101789.31;5008493;28;20229;-68
2023/05/06 01:11:14;;;;;;;10.00;6.13;;;;;;;9.38;100.00;101787.56;5005333;28;20310;-69
2023/05/06 01:13:43;;;;;;;15.27;6.27;;;;;;;9.38;100.00;101790.13;5009951;28;20193;-68
2023/05/06 01:16:11;;;;;;;8.23;6.07;;;;;;;9.41;100.00;101786.81;5007275;28;20221;-68
2023/05/06 01:18:37;;;;;;;9.70;6.20;;;;;;;9.33;100.00;101783.06;5019216;28;20331;-69
2023/05/06 01:21:04;;;;;;;10.20;6.33;;;;;;;9.33;100.00;101783.97;5007288;28;20716;-69
2023/05/06 01:23:49;;;;;;;10.00;6.30;;;;;;;9.35;100.00;101777.22;5023746;28;20217;-69
2023/05/06 01:26:16;;;;;;;9.53;6.23;;;;;;;9.32;100.00;101776.22;5025624;28;20828;-69
2023/05/06 01:28:41;;;;;;;11.40;6.20;;;;;;;9.35;100.00;101784.88;5007423;28;20190;-69
2023/05/06 01:31:11;;;;;;;11.97;6.47;;;;;;;9.33;100.00;101777.97;5023131;28;20871;-69
2023/05/06 01:33:56;;;;;;;9.07;5.93;;;;;;;9.32;100.00;101781.34;5022433;28;20258;-69
2023/05/06 01:36:37;;;;;;;10.93;6.57;;;;;;;9.28;100.00;101774.38;5001775;28;20198;-69
2023/05/06 01:39:24;;;;;;;12.80;6.70;;;;;;;9.31;100.00;101779.59;5004661;28;20264;-69
2023/05/06 01:41:52;;;;;;;12.37;6.70;;;;;;;9.27;100.00;101781.16;5011486;28;20305;-69
2023/05/06 01:44:21;;;;;;;11.57;6.83;;;;;;;9.32;100.00;101781.34;5018833;28;20333;-69
2023/05/06 01:46:48;;;;;;;9.73;6.57;;;;;;;9.28;100.00;101780.34;5021884;28;20197;-69
2023/05/06 01:49:16;;;;;;;10.67;7.00;;;;;;;9.26;100.00;101779.41;5011487;28;20186;-69
2023/05/06 01:51:49;;;;;;;10.43;6.17;;;;;;;9.28;100.00;101782.91;5017093;28;20211;-69
2023/05/06 01:54:14;;;;;;;11.57;6.30;;;;;;;9.25;100.00;101787.91;5005266;28;20198;-69
2023/05/06 01:56:40;;;;;;;10.83;6.57;;;;;;;9.27;100.00;101778.59;5020023;28;20215;-69
2023/05/06 01:59:05;;;;;;;11.03;6.73;;;;;;;9.29;100.00;101781.22;5025905;28;20771;-68
2023/05/06 02:01:31;;;;;;;11.77;7.00;;;;;;;9.29;100.00;101776.09;5023134;28;20751;-69
2023/05/06 02:03:56;;;;;;;13.83;6.70;;;;;;;9.26;100.00;101773.44;5009900;28;20190;-68
2023/05/06 02:06:22;;;;;;;9.27;6.57;;;;;;;9.27;100.00;101778.59;5008009;28;20202;-68
2023/05/06 02:08:48;;;;;;;11.43;6.43;;;;;;;9.26;100.00;101786.22;5010955;28;20182;-68
2023/05/06 02:11:17;;;;;;;10.90;7.13;;;;;;;9.26;100.00;101783.66;5028026;28;20218;-68
2023/05/06 02:13:44;;;;;;;11.13;6.73;;;;;;;9.25;100.00;101780.22;5008422;28;20660;-67
2023/05/06 02:16:10;;;;;;;12.73;6.80;;;;;;;9.25;100.00;101785.34;5010082;28;20207;-68
2023/05/06 02:18:36;;;;;;;13.53;7.73;;;;;;;9.16;100.00;101782.41;5008096;28;20250;-67
2023/05/06 02:21:02;;;;;;;10.43;6.60;;;;;;;9.25;100.00;101789.56;5011420;28;20203;-68
2023/05/06 02:23:28;;;;;;;13.17;7.47;;;;;;;9.20;100.00;101786.84;5017467;28;20260;-68
2023/05/06 02:25:53;;;;;;;12.10;7.77;;;;;;;9.23;100.00;101786.09;5027712;28;20636;-67
2023/05/06 02:28:19;;;;;;;11.30;7.13;;;;;;;9.23;100.00;101786.09;4987222;28;20206;-68
2023/05/06 02:30:44;;;;;;;11.53;7.43;;;;;;;9.26;100.00;101792.19;5017319;28;20320;-68
2023/05/06 02:33:10;;;;;;;12.60;7.77;;;;;;;9.23;100.00;101786.97;5020738;28;20902;-68
2023/05/06 02:35:36;;;;;;;14.23;7.33;;;;;;;9.23;100.00;101789.53;5004410;28;20190;-68
2023/05/06 02:38:02;;;;;;;15.07;7.50;;;;;;;9.29;100.00;101781.22;5005104;28;20245;-68
2023/05/06 02:40:27;;;;;;;12.23;7.27;;;;;;;9.27;100.00;101787.97;5001044;28;20213;-68
2023/05/06 02:42:53;;;;;;;13.00;7.73;;;;;;;9.25;100.00;101782.78;5027831;28;20232;-68
2023/05/06 02:45:18;;;;;;;13.23;7.23;;;;;;;9.25;100.00;101790.44;5009824;28;20241;-68
2023/05/06 02:47:44;;;;;;;12.77;7.90;;;;;;;9.31;100.00;101789.84;5025633;28;20185;-67
2023/05/06 02:50:09;;;;;;;10.50;7.43;;;;;;;9.31;100.00;101788.13;5028679;28;20308;-68
2023/05/06 02:52:35;;;;;;;12.37;8.03;;;;;;;9.34;100.00;101795.03;5020297;28;20233;-67
2023/05/06 02:55:01;;;;;;;10.90;7.33;;;;;;;9.32;100.00;101789.00;5010737;28;20194;-68
2023/05/06 02:57:26;;;;;;;12.23;7.23;;;;;;;9.33;100.00;101794.19;5025947;28;20277;-68
2023/05/06 02:59:52;;;;;;;8.37;6.70;;;;;;;9.36;100.00;101794.28;5020220;28;20191;-69
2023/05/06 03:02:17;;;;;;;11.10;7.23;;;;;;;9.37;100.00;101795.16;5020740;28;20201;-68
2023/05/06 03:04:43;;;;;;;8.10;6.93;;;;;;;9.36;100.00;101796.84;5007313;28;20202;-68
2023/05/06 03:07:08;;;;;;;9.40;7.57;;;;;;;9.40;100.00;101800.41;5024639;28;20259;-68
2023/05/06 03:09:34;;;;;;;10.80;7.43;;;;;;;9.38;100.00;101787.56;5021984;28;20191;-68
2023/05/06 03:12:01;;;;;;;9.77;7.10;;;;;;;9.41;100.00;101790.25;5027255;28;20206;-68
2023/05/06 03:14:27;;;;;;;12.30;7.43;;;;;;;9.30;100.00;101788.94;5009749;28;20196;-68
2023/05/06 03:16:52;;;;;;;12.17;7.67;;;;;;;9.36;100.00;101780.66;5022433;28;20202;-68
2023/05/06 03:19:18;;;;;;;12.80;7.50;;;;;;;9.35;100.00;101779.78;5007566;28;20719;-68
2023/05/06 03:21:44;;;;;;;13.33;7.70;;;;;;;9.30;100.00;101780.44;5020422;28;20207;-68
2023/05/06 03:24:10;;;;;;;13.73;7.73;;;;;;;9.30;100.00;101771.06;5010527;28;20192;-68
2023/05/06 03:26:36;;;;;;;10.27;7.27;;;;;;;9.28;100.00;101776.91;5019988;28;20286;-68
2023/05/06 03:29:01;;;;;;;9.17;7.13;;;;;;;9.30;100.00;101773.63;5005283;28;20340;-68
2023/05/06 03:31:28;;;;;;;13.27;7.40;;;;;;;9.28;100.00;101775.25;5020823;28;20221;-68
2023/05/06 03:33:54;;;;;;;12.83;7.90;;;;;;;9.33;100.00;101783.97;5011556;28;20233;-67
2023/05/06 03:36:22;;;;;;;10.17;7.77;;;;;;;9.34;100.00;101782.25;5021180;28;20201;-69
2023/05/06 03:38:50;;;;;;;13.80;7.53;;;;;;;9.33;100.00;101776.28;5010791;28;20588;-68
2023/05/06 03:41:17;;;;;;;10.97;7.87;;;;;;;9.31;100.00;101775.34;5009408;28;20221;-69
2023/05/06 03:43:43;;;;;;;11.07;7.43;;;;;;;9.35;100.00;101778.91;5006413;28;20656;-69
2023/05/06 03:46:10;;;;;;;11.10;7.70;;;;;;;9.30;100.00;101777.88;5002367;28;20191;-67
2023/05/06 03:48:35;;;;;;;12.43;7.77;;;;;;;9.31;100.00;101782.16;5005872;28;20709;-67
2023/05/06 03:51:04;;;;;;;14.30;7.70;;;;;;;9.27;100.00;101773.47;5003614;28;20211;-69
2023/05/06 03:53:30;;;;;;;10.60;7.63;;;;;;;9.31;100.00;101772.78;4993665;28;20260;-69
2023/05/06 03:55:55;;;;;;;9.97;7.37;;;;;;;9.29;100.00;101771.88;5020974;28;20195;-68
2023/05/06 03:58:21;;;;;;;12.27;7.70;;;;;;;9.23;100.00;101769.09;5002898;28;20873;-68
2023/05/06 04:00:47;;;;;;;13.70;7.80;;;;;;;9.27;100.00;101772.63;5004647;28;20725;-68
2023/05/06 04:03:12;;;;;;;12.00;7.70;;;;;;;9.28;100.00;101770.13;5003948;28;20194;-68
2023/05/06 04:05:45;;;;;;;13.67;7.60;;;;;;;9.23;100.00;101770.75;5026039;28;20198;-68
2023/05/06 04:08:12;;;;;;;12.37;8.10;;;;;;;9.24;100.00;101764.81;5025035;28;20249;-67
2023/05/06 04:10:39;;;;;;;10.13;7.03;;;;;;;9.25;100.00;101762.34;5018414;28;20221;-68
2023/05/06 04:13:08;;;;;;;11.67;8.40;;;;;;;9.18;100.00;101762.03;5020054;28;20200;-67
2023/05/06 04:15:40;;;;;;;14.30;8.07;;;;;;;9.22;100.00;101759.66;5003406;28;20186;-67
2023/05/06 04:18:08;;;;;;;14.70;7.63;;;;;;;9.24;100.00;101758.03;5003619;28;20221;-68
2023/05/06 04:20:36;;;;;;;10.97;7.33;;;;;;;9.26;100.00;101760.66;5011959;28;20218;-68
2023/05/06 04:23:01;;;;;;;12.10;8.07;;;;;;;9.26;100.00;101770.88;5025389;28;20204;-68
2023/05/06 04:25:27;;;;;;;13.47;8.07;;;;;;;9.29;100.00;101773.53;5028013;28;20294;-67
2023/05/06 04:27:53;;;;;;;11.10;7.33;;;;;;;9.26;100.00;101766.63;5001500;28;20283;-67
2023/05/06 04:30:21;;;;;;;12.07;7.50;;;;;;;9.29;100.00;101773.53;5013555;28;20247;-67
2023/05/06 04:32:48;;;;;;;12.90;7.60;;;;;;;9.32;100.00;101782.22;5007064;28;20226;-68
2023/05/06 04:35:15;;;;;;;10.93;7.83;;;;;;;9.25;100.00;101770.00;5009094;28;20224;-68
2023/05/06 04:37:42;;;;;;;11.40;7.67;;;;;;;9.31;100.00;101779.59;5011887;28;20221;-68
2023/05/06 04:40:12;;;;;;;12.77;8.00;;;;;;;9.34;100.00;101779.69;5007668;28;20297;-68
2023/05/06 04:42:41;;;;;;;12.50;7.93;;;;;;;9.32;100.00;101779.66;5004093;28;20186;-70
2023/05/06 04:45:12;;;;;;;8.00;6.53;;;;;;;9.38;100.00;101786.69;5022414;28;20199;-68
2023/05/06 04:47:41;;;;;;;11.47;8.03;;;;;;;9.35;100.00;101784.03;5011991;28;20183;-68
2023/05/06 04:50:08;;;;;;;11.23;8.37;;;;;;;9.34;100.00;101778.03;5013045;28;20218;-68
2023/05/06 04:52:35;;;;;;;11.13;8.00;;;;;;;9.33;100.00;101780.53;5018297;28;20190;-68
2023/05/06 04:55:01;;;;;;;12.40;8.00;;;;;;;9.33;100.00;101783.97;5008535;28;20191;-68
2023/05/06 04:57:30;;;;;;;10.47;6.77;;;;;;;9.34;100.00;101789.94;5013836;28;20707;-68
2023/05/06 04:59:56;;;;;;;9.97;7.90;;;;;;;9.36;100.00;101796.00;5007043;28;20198;-68
2023/05/06 05:02:21;;;;;;;11.67;8.00;;;;;;;9.36;100.00;101801.09;5011544;28;20240;-68
2023/05/06 05:04:47;;;;;;;11.50;8.27;;;;;;;9.36;100.00;101804.50;4996584;28;20195;-68
2023/05/06 05:07:14;;;;;;;12.90;8.43;;;;;;;9.38;100.00;101800.34;5021826;28;20182;-68
2023/05/06 05:09:39;;;;;;;11.43;7.70;;;;;;;9.38;100.00;101808.00;4991010;28;20198;-68
2023/05/06 05:12:06;;;;;;;12.17;8.07;;;;;;;9.35;100.00;101804.47;5011195;28;20230;-68
2023/05/06 05:14:35;;;;;;;11.53;8.30;;;;;;;9.39;100.00;101812.31;5022632;28;20244;-69
2023/05/06 05:17:01;;;;;;;12.53;9.00;;;;;;;9.32;100.00;101820.56;5004151;28;20222;-68
2023/05/06 05:19:27;;;;;;;11.43;8.53;;;;;;;9.42;100.00;101815.00;5010677;28;20617;-67
2023/05/06 05:21:53;;;;;;;14.37;7.97;;;;;;;9.45;100.00;101816.81;5010844;28;20234;-68
2023/05/06 05:24:20;;;;;;;9.97;8.10;;;;;;;9.46;100.00;101818.53;5029163;28;20198;-67
2023/05/06 05:26:46;;;;;;;11.23;8.23;;;;;;;9.39;100.00;101814.88;5029702;28;20293;-67
2023/05/06 05:29:11;;;;;;;10.90;7.87;;;;;;;9.37;100.00;101825.84;5024638;28;20202;-66
2023/05/06 05:31:37;;;;;;;11.23;8.43;;;;;;;9.38;100.00;101828.47;5026368;28;20282;-68
2023/05/06 05:34:02;;;;;;;17.30;10.20;;;;;;;9.43;100.00;101831.19;4999947;28;20190;-67
2023/05/06 05:36:28;;;;;;;18.73;11.17;;;;;;;9.41;100.00;101832.81;5025452;28;20261;-68
2023/05/06 05:38:56;;;;;;;12.30;10.40;;;;;;;9.48;100.00;101845.03;5007806;28;20195;-68
2023/05/06 05:41:25;;;;;;;13.17;8.37;;;;;;;9.49;100.00;101841.69;5007221;28;20206;-68
2023/05/06 05:43:51;;;;;;;10.67;8.30;;;;;;;9.49;100.00;101847.66;5005134;28;20238;-68
2023/05/06 05:46:17;;;;;;;19.00;9.10;;;;;;;9.50;100.00;101841.72;5011586;28;20225;-68
2023/05/06 05:48:45;;;;;;;10.57;8.40;;;;;;;9.53;100.00;101843.50;5017717;28;20297;-68
2023/05/06 05:51:10;;;;;;;11.30;8.00;;;;;;;9.52;100.00;101845.22;5004975;28;20631;-67
2023/05/06 05:53:36;;;;;;;9.17;7.80;;;;;;;9.54;100.00;101850.41;5003125;28;20859;-68
2023/05/06 05:56:04;;;;;;;10.83;7.80;;;;;;;9.58;100.00;101850.56;5004209;28;20182;-67
2023/05/06 05:58:29;;;;;;;10.20;7.80;;;;;;;9.58;100.00;101848.00;5010899;28;20216;-68
2023/05/06 06:00:57;;;;;;;11.00;8.20;;;;;;;9.51;100.00;101848.59;5001800;28;21128;-67
2023/05/06 06:03:23;;;;;;;13.97;8.60;;;;;;;9.53;100.00;101853.75;5023814;28;20198;-68
2023/05/06 06:05:51;;;;;;;12.27;8.47;;;;;;;9.56;100.00;101846.19;5009358;28;20186;-67
2023/05/06 06:08:17;;;;;;;13.17;7.87;;;;;;;9.57;100.00;101846.28;5025278;28;20251;-68
2023/05/06 06:10:43;;;;;;;10.80;7.80;;;;;;;9.59;100.00;101843.78;4989905;28;20680;-68
2023/05/06 06:13:14;;;;;;;11.60;8.27;;;;;;;9.62;100.00;101844.75;5021685;28;20194;-67
2023/05/06 06:15:40;;;;;;;16.50;9.07;;;;;;;9.69;100.00;101835.66;5019178;28;20625;-68
2023/05/06 06:18:07;;;;;;;13.47;8.60;;;;;;;9.63;100.00;101846.50;5007624;28;20222;-68
2023/05/06 06:20:34;;;;;;;13.83;9.10;;;;;;;9.62;100.00;101854.09;4993290;28;20225;-68
2023/05/06 06:23:00;;;;;;;14.30;9.23;;;;;;;9.59;100.00;101851.44;5025716;28;20206;-68
2023/05/06 06:25:25;;;;;;;10.23;8.53;;;;;;;9.63;100.00;101854.16;5006575;28;20208;-67
2023/05/06 06:27:54;;;;;;;10.53;8.30;;;;;;;9.71;100.00;101857.91;5006537;28;20219;-68
2023/05/06 06:30:19;;;;;;;12.53;9.00;;;;;;;9.68;100.00;101850.09;5018428;28;20214;-68
2023/05/06 06:32:50;;;;;;;11.70;9.50;;;;;;;9.60;100.00;101853.19;5020764;28;20224;-67
2023/05/06 06:35:16;;;;;;;11.83;9.40;;;;;;;9.65;100.00;101857.69;5007517;28;20562;-67
2023/05/06 06:37:42;;;;;;;15.17;9.00;;;;;;;9.66;100.00;101864.53;5025543;28;20206;-68
2023/05/06 06:40:10;;;;;;;12.47;9.60;;;;;;;9.67;100.00;101863.72;5023916;28;20226;-67
2023/05/06 06:42:35;;;;;;;11.40;9.60;;;;;;;9.64;100.00;101860.16;5026055;28;20202;-67
2023/05/06 06:45:08;;;;;;;12.77;8.83;;;;;;;9.75;100.00;101858.88;5004380;28;20207;-67
2023/05/06 06:47:34;;;;;;;11.83;9.07;;;;;;;9.75;100.00;101864.00;5019365;28;20185;-67
2023/05/06 06:49:59;;;;;;;13.67;9.03;;;;;;;9.81;100.00;101864.28;5004535;28;20708;-69
2023/05/06 06:52:25;;;;;;;16.83;9.87;;;;;;;9.90;100.00;101865.47;5026844;28;20204;-69
2023/05/06 06:54:51;;;;;;;13.83;9.63;;;;;;;9.82;100.00;101866.00;5021886;28;20221;-69
2023/05/06 06:57:16;;;;;;;13.80;9.77;;;;;;;9.79;100.00;101863.31;5023790;28;20274;-68
2023/05/06 06:59:41;;;;;;;12.70;9.50;;;;;;;9.79;100.00;101869.31;5009846;28;20205;-69
2023/05/06 07:02:07;;;;;;;11.50;8.93;;;;;;;9.84;100.00;101869.47;5021535;28;20222;-67
2023/05/06 07:04:32;;;;;;;12.27;9.47;;;;;;;9.88;100.00;101874.78;5023130;28;20195;-67
2023/05/06 07:06:58;;;;;;;12.90;9.17;;;;;;;9.84;100.00;101874.59;5020443;28;20256;-67
2023/05/06 07:09:23;;;;;;;10.90;8.53;;;;;;;9.88;100.00;101876.47;5016373;28;21033;-69
2023/05/06 07:11:49;;;;;;;12.07;9.30;;;;;;;9.92;100.00;101880.88;4998083;28;20214;-66
2023/05/06 07:14:14;;;;;;;10.30;8.87;;;;;;;9.80;100.00;101882.97;5019373;28;20723;-67
2023/05/06 07:16:40;;;;;;;13.67;9.07;;;;;;;9.84;100.00;101882.28;5005936;28;20718;-69
2023/05/06 07:19:05;;;;;;;10.33;8.47;;;;;;;9.92;100.00;101892.00;5027054;28;20204;-67
2023/05/06 07:21:31;;;;;;;11.43;9.00;;;;;;;9.96;100.00;101893.84;5027747;28;20218;-67
2023/05/06 07:23:57;;;;;;;12.23;8.47;;;;;;;9.91;100.00;101899.63;5027529;28;20251;-67
2023/05/06 07:26:23;;;;;;;11.27;8.53;;;;;;;9.83;100.00;101893.31;5028345;28;20662;-67
2023/05/06 07:28:49;;;;;;;15.90;9.83;;;;;;;9.83;100.00;101895.88;5025994;28;20187;-67
2023/05/06 07:31:15;;;;;;;13.23;8.70;;;;;;;9.82;100.00;101901.81;5028968;28;20230;-68
2023/05/06 07:33:41;;;;;;;12.73;9.20;;;;;;;9.89;100.00;101912.34;5018738;28;20675;-68
2023/05/06 07:36:07;;;;;;;11.10;8.97;;;;;;;9.91;100.00;101908.16;5004613;28;20198;-68
2023/05/06 07:38:32;;;;;;;11.47;9.10;;;;;;;9.85;100.00;101907.91;5022629;28;20206;-69
2023/05/06 07:40:58;;;;;;;15.33;9.53;;;;;;;9.93;100.00;101910.78;5017706;28;20225;-68
2023/05/06 07:43:23;;;;;;;13.67;8.90;;;;;;;9.98;100.00;101909.25;5009953;28;20198;-68
2023/05/06 07:45:49;;;;;;;11.10;8.70;;;;;;;9.85;100.00;101912.16;5019359;28;20232;-69
2023/05/06 07:48:15;;;;;;;15.33;8.97;;;;;;;9.96;100.00;101914.31;5020133;28;20205;-68
2023/05/06 07:50:40;;;;;;;14.47;8.43;;;;;;;9.98;100.00;101917.81;5022033;28;20714;-67
2023/05/06 07:53:05;;;;;;;14.93;8.80;;;;;;;9.96;100.00;101911.75;5020137;28;20190;-68
2023/05/06 07:55:31;;;;;;;12.53;8.33;;;;;;;10.05;100.00;101919.81;5023652;28;20190;-68
2023/05/06 07:57:56;;;;;;;12.00;9.00;;;;;;;10.07;100.00;101917.31;5022325;28;20610;-69
2023/05/06 08:00:22;;;;;;;13.43;8.90;;;;;;;10.02;100.00;101927.38;5031149;28;20224;-68
2023/05/06 08:02:47;;;;;;;13.30;8.90;;;;;;;10.05;100.00;101935.16;5012323;28;20186;-68
2023/05/06 08:05:13;;;;;;;13.73;8.53;;;;;;;10.03;100.00;101930.78;5025458;28;20191;-68
2023/05/06 08:07:40;;;;;;;12.10;8.87;;;;;;;10.21;100.00;101936.63;5026922;28;20221;-67
2023/05/06 08:10:07;;;;;;;11.30;8.47;;;;;;;10.15;100.00;101938.97;5022942;28;20237;-68
2023/05/06 08:12:34;;;;;;;14.77;9.47;;;;;;;10.21;100.00;101941.75;5026313;28;20194;-68
2023/05/06 08:15:00;;;;;;;11.43;8.70;;;;;;;10.19;100.00;101946.81;5028167;28;20191;-68
2023/05/06 08:17:26;;;;;;;13.13;9.70;;;;;;;10.18;100.00;101957.88;5013849;28;20216;-69
2023/05/06 08:19:51;;;;;;;15.40;9.87;;;;;;;10.14;100.00;101957.72;5028921;28;20285;-67
2023/05/06 08:22:18;;;;;;;15.57;9.37;;;;;;;10.08;100.00;101955.78;5030921;28;20206;-67
2023/05/06 08:24:44;;;;;;;12.70;9.43;;;;;;;10.20;100.00;101953.69;5027238;28;20194;-69
2023/05/06 08:27:09;;;;;;;12.53;8.70;;;;;;;10.25;100.00;101959.88;5021369;28;20205;-68
2023/05/06 08:29:35;;;;;;;12.27;8.40;;;;;;;10.21;100.00;101963.13;5005831;28;20204;-68
2023/05/06 08:32:00;;;;;;;14.23;9.27;;;;;;;10.27;100.00;101965.06;4994881;28;20301;-67
2023/05/06 08:34:26;;;;;;;13.73;9.23;;;;;;;10.28;100.00;101965.09;5029653;28;20202;-67
2023/05/06 08:36:51;;;;;;;13.43;8.60;;;;;;;10.28;100.00;101970.19;5029939;28;20214;-69
2023/05/06 08:39:17;;;;;;;12.57;9.67;;;;;;;10.30;100.00;101966.03;5029692;28;20211;-67
2023/05/06 08:41:52;;;;;;;12.20;9.77;;;;;;;10.23;100.00;101966.59;5019320;28;20213;-67
2023/05/06 08:44:21;;;;;;;15.50;9.60;;;;;;;10.31;100.00;101961.75;5023010;28;20206;-67
2023/05/06 08:46:47;;;;;;;13.93;9.10;;;;;;;10.46;100.00;101967.50;5027863;28;20186;-67
2023/05/06 08:49:13;;;;;;;13.63;8.70;;;;;;;10.53;100.00;101972.00;5027602;28;20617;-67
2023/05/06 08:51:42;;;;;;;14.80;9.87;;;;;;;10.46;100.00;101970.06;5026627;28;20264;-67
2023/05/06 08:54:10;;;;;;;13.40;9.63;;;;;;;10.43;100.00;101972.47;5023237;28;20290;-67
2023/05/06 08:56:37;;;;;;;13.53;8.97;;;;;;;10.37;100.00;101977.38;5029677;28;20199;-68
2023/05/06 08:59:03;;;;;;;15.27;10.30;;;;;;;10.24;100.00;101975.16;5025641;28;20206;-68
2023/05/06 09:01:28;;;;;;;15.47;9.77;;;;;;;10.29;100.00;101976.22;5025454;28;20206;-67
2023/05/06 09:03:56;;;;;;;15.40;11.00;;;;;;;10.44;100.00;101977.66;5023538;28;20698;-67
2023/05/06 09:06:23;;;;;;;14.30;10.27;;;;;;;10.57;100.00;101973.88;5011589;28;20240;-67
2023/05/06 09:08:48;;;;;;;15.33;10.00;;;;;;;10.60;100.00;101982.53;5008888;28;20733;-68
2023/05/06 09:11:20;;;;;;;11.97;9.27;;;;;;;10.54;100.00;101977.19;5008139;28;20688;-67
2023/05/06 09:13:46;;;;;;;15.43;10.30;;;;;;;10.57;100.00;101974.75;5022915;28;20205;-68
2023/05/06 09:16:27;;;;;;;11.97;9.03;;;;;;;10.89;100.00;101979.38;5024843;28;20562;-67
2023/05/06 09:18:52;;;;;;;11.57;8.73;;;;;;;11.01;100.00;101979.81;5023289;28;20214;-67
2023/05/06 09:21:18;;;;;;;12.27;9.07;;;;;;;10.98;100.00;101982.28;5026343;28;20207;-68
2023/05/06 09:23:43;;;;;;;15.63;9.67;;;;;;;11.02;100.00;101985.81;5016851;28;20183;-66
2023/05/06 09:26:09;;;;;;;12.13;8.80;;;;;;;11.18;100.00;101978.72;5017806;28;20313;-66
2023/05/06 09:28:34;;;;;;;13.67;9.60;;;;;;;11.15;100.00;101980.31;5004529;28;20191;-67
2023/05/06 09:31:00;;;;;;;12.63;9.40;;;;;;;11.23;100.00;101979.75;5021845;28;20662;-67
2023/05/06 09:33:26;;;;;;;12.67;9.63;;;;;;;11.40;100.00;101982.88;5021736;28;20863;-67
2023/05/06 09:35:52;;;;;;;15.33;9.40;;;;;;;11.36;100.00;101992.19;5025645;28;20194;-66
2023/05/06 09:38:17;;;;;;;12.33;8.77;;;;;;;11.42;100.00;101991.50;5023219;28;20210;-66
2023/05/06 09:40:42;;;;;;;14.50;9.33;;;;;;;11.43;100.00;101999.25;5027686;28;20722;-69
2023/05/06 09:43:09;;;;;;;12.57;8.63;;;;;;;11.54;100.00;101987.69;5023399;28;20811;-67
2023/05/06 09:45:35;;;;;;;14.63;9.50;;;;;;;11.51;100.00;101985.00;5021206;28;20195;-69
2023/05/06 09:48:01;;;;;;;12.47;9.43;;;;;;;11.52;100.00;101985.88;5025708;28;20284;-68
2023/05/06 09:50:27;;;;;;;13.40;9.40;;;;;;;11.53;100.00;101990.19;5007800;28;20301;-68
2023/05/06 09:52:53;;;;;;;20.03;10.40;;;;;;;11.33;100.00;102001.47;5027067;28;20553;-68
2023/05/06 09:55:21;;;;;;;14.00;9.97;;;;;;;11.32;100.00;102002.25;5002114;28;20195;-68
2023/05/06 09:57:48;;;;;;;16.87;9.90;;;;;;;11.33;100.00;101997.19;5024700;28;20229;-68
2023/05/06 10:00:15;;;;;;;15.60;10.27;;;;;;;11.28;100.00;102003.84;5021707;28;20210;-68
2023/05/06 10:02:44;;;;;;;15.80;9.77;;;;;;;11.28;100.00;102006.41;5026038;28;20695;-68
2023/05/06 10:05:11;;;;;;;14.67;10.50;;;;;;;11.28;100.00;102010.66;5024404;28;20197;-68
2023/05/06 10:07:37;;;;;;;17.50;10.50;;;;;;;11.29;100.00;102015.00;5024095;28;20659;-69
2023/05/06 10:10:05;;;;;;;13.90;10.03;;;;;;;11.20;100.00;102018.09;5027169;28;20194;-68
2023/05/06 10:12:31;;;;;;;15.03;10.67;;;;;;;11.18;100.00;102016.28;5024925;28;20214;-68
2023/05/06 10:14:56;;;;;;;14.00;10.43;;;;;;;11.28;100.00;102018.34;5020899;28;20206;-68
2023/05/06 10:17:24;;;;;;;19.13;11.63;;;;;;;11.36;100.00;102014.38;5026266;28;20214;-68
2023/05/06 10:19:55;;;;;;;14.60;10.97;;;;;;;11.30;100.00;102012.44;5026833;28;20214;-68
2023/05/06 10:22:48;;;;;;;15.00;10.70;;;;;;;11.41;100.00;102013.72;5021463;28;20191;-68
2023/05/06 10:25:38;;;;;;;18.20;10.30;;;;;;;11.45;100.00;102005.31;5024222;28;20195;-69
2023/05/06 10:28:05;;;;;;;13.53;10.17;;;;;;;11.46;100.00;102017.31;5009379;28;20198;-68
2023/05/06 10:30:36;;;;;;;13.73;10.13;;;;;;;11.51;100.00;102015.78;5007083;28;20301;-68
2023/05/06 10:33:10;;;;;;;16.03;10.00;;;;;;;11.48;100.00;102018.22;5025654;28;20633;-68
2023/05/06 10:36:12;;;;;;;14.70;10.37;;;;;;;11.42;100.00;102014.56;5019781;28;20194;-68
2023/05/06 10:38:48;;;;;;;14.43;10.97;;;;;;;11.51;100.00;102014.88;5020194;28;20231;-69
2023/05/06 10:41:14;;;;;;;15.73;10.27;;;;;;;11.48;100.00;102018.22;5022531;28;20218;-68
2023/05/06 10:43:42;;;;;;;18.10;10.23;;;;;;;11.50;100.00;102018.28;5021088;28;20214;-68
2023/05/06 10:46:10;;;;;;;14.23;10.60;;;;;;;11.42;100.00;102015.47;5024359;28;20693;-68
2023/05/06 10:48:38;;;;;;;13.07;10.13;;;;;;;11.66;100.00;102006.06;5019249;28;20194;-69
2023/05/06 10:51:15;;;;;;;15.27;10.30;;;;;;;11.61;100.00;102009.31;5022519;28;20557;-68
2023/05/06 10:54:03;;;;;;;18.73;10.53;;;;;;;11.47;100.00;102011.34;5017444;28;20624;-68
2023/05/06 10:56:29;;;;;;;15.00;10.63;;;;;;;11.38;100.00;102012.75;5022643;28;20186;-68
2023/05/06 10:58:55;;;;;;;14.67;10.30;;;;;;;11.34;100.00;102019.44;5025595;28;20293;-67
2023/05/06 11:01:27;;;;;;;16.13;10.67;;;;;;;11.40;100.00;102018.78;5024640;28;20312;-68
2023/05/06 11:03:53;;;;;;;20.17;10.50;;;;;;;11.45;100.00;102020.72;5023125;28;20257;-68
2023/05/06 11:06:40;;;;;;;15.67;10.40;;;;;;;11.52;100.00;102021.78;5002949;28;20198;-68
2023/05/06 11:09:17;;;;;;;14.63;10.70;;;;;;;11.50;100.00;102021.72;5021971;28;20711;-68
2023/05/06 11:11:53;;;;;;;19.63;10.93;;;;;;;11.34;100.00;102018.59;5008764;28;20272;-67
2023/05/06 11:14:27;;;;;;;18.20;10.80;;;;;;;11.49;100.00;102017.44;5014241;28;20205;-67
2023/05/06 11:16:53;;;;;;;14.30;10.23;;;;;;;11.52;100.00;102020.06;4989662;28;20186;-67